Time;durP1;ratioP1;P1;durP2;ratioP2;P2;SDS_P1;SDS_P2;PMS_P1;PMS_P2;Temp;Humidity;BMP_temperature;BMP_pressure;BME280_temperature;BME280_humidity;BME280_pressure;Samples;Min_cycle;Max_cycle;Signal;HPM_P1;HPM_P2
2020/12/18 00:01:09;;;;;;;6.47;4.30;;;;;;;3.32;94.68;98057.22;4956243;28;20034;-77
2020/12/18 00:03:36;;;;;;;8.55;4.15;;;;;;;3.37;95.38;98047.22;4971919;28;20050;-78
2020/12/18 00:06:02;;;;;;;7.35;4.70;;;;;;;3.38;94.98;98043.66;4944910;28;20118;-77
2020/12/18 00:08:28;;;;;;;6.30;4.38;;;;;;;3.32;94.85;98046.94;4946683;28;20069;-77
2020/12/18 00:10:54;;;;;;;8.38;4.75;;;;;;;3.32;94.47;98043.56;4971887;28;20490;-77
2020/12/18 00:13:20;;;;;;;8.10;4.30;;;;;;;3.30;94.78;98043.75;4971933;28;20126;-77
2020/12/18 00:15:45;;;;;;;5.88;3.97;;;;;;;3.22;94.67;98032.72;4944449;28;20030;-77
2020/12/18 00:18:11;;;;;;;7.68;3.80;;;;;;;3.22;94.36;98038.66;4954642;28;20504;-77
2020/12/18 00:20:37;;;;;;;6.30;3.85;;;;;;;3.30;94.14;98042.97;4972066;28;20030;-77
2020/12/18 00:23:03;;;;;;;8.82;4.38;;;;;;;3.25;94.72;98050.41;4959397;28;20042;-77
2020/12/18 00:25:29;;;;;;;7.85;4.78;;;;;;;3.30;nan;98051.47;4978763;28;20393;-77
2020/12/18 00:27:55;;;;;;;8.07;4.65;;;;;;;3.33;95.27;98048.53;4971773;28;20090;-77
2020/12/18 00:30:21;;;;;;;9.43;5.47;;;;;;;3.40;95.14;98051.22;4970665;28;20033;-77
2020/12/18 00:32:46;;;;;;;7.60;4.13;;;;;;;3.47;95.00;98054.69;4953506;28;20372;-77
2020/12/18 00:35:12;;;;;;;5.85;3.95;;;;;;;3.48;94.34;98050.31;4970991;28;20038;-77
2020/12/18 00:37:38;;;;;;;6.35;4.28;;;;;;;3.50;94.62;98051.75;4955729;28;20038;-77
2020/12/18 00:40:05;;;;;;;5.97;3.58;;;;;;;3.39;94.94;98052.19;4954820;28;20026;-77
2020/12/18 00:42:31;;;;;;;7.55;3.63;;;;;;;3.36;94.43;98053.34;4954017;28;20037;-77
2020/12/18 00:44:57;;;;;;;7.05;4.28;;;;;;;3.29;94.73;98054.22;4977752;28;20043;-77
2020/12/18 00:47:23;;;;;;;7.35;3.95;;;;;;;3.33;95.03;98055.47;4965712;28;20033;-78
2020/12/18 00:49:50;;;;;;;6.75;4.38;;;;;;;3.35;95.26;98045.81;4965228;28;20077;-77
2020/12/18 00:52:15;;;;;;;6.82;3.92;;;;;;;3.37;94.82;98046.41;4953100;28;20386;-77
2020/12/18 00:54:41;;;;;;;5.72;3.80;;;;;;;3.43;94.93;98053.44;4953192;28;20045;-77
2020/12/18 00:57:07;;;;;;;7.05;3.92;;;;;;;3.41;94.91;98047.69;4970978;28;20038;-77
2020/12/18 00:59:34;;;;;;;5.13;3.60;;;;;;;3.45;94.88;98041.19;4971429;28;20101;-77
2020/12/18 01:02:00;;;;;;;5.55;3.60;;;;;;;3.37;94.86;98047.22;4956704;28;20549;-77
2020/12/18 01:04:27;;;;;;;5.07;2.67;;;;;;;3.22;93.45;98046.38;4962883;28;20035;-77
2020/12/18 01:06:54;;;;;;;6.15;3.17;;;;;;;2.97;92.86;98049.19;4953992;28;20038;-77
2020/12/18 01:09:21;;;;;;;3.97;2.33;;;;;;;2.89;92.97;98061.31;4953834;28;20033;-77
2020/12/18 01:11:47;;;;;;;5.78;3.75;;;;;;;2.87;93.67;98055.56;4938632;28;20033;-77
2020/12/18 01:14:13;;;;;;;6.38;3.58;;;;;;;2.89;93.89;98045.88;4962958;28;20078;-77
2020/12/18 01:16:39;;;;;;;6.07;3.50;;;;;;;2.92;94.21;98051.50;4969689;28;20037;-77
2020/12/18 01:19:06;;;;;;;5.60;3.65;;;;;;;2.97;94.23;98054.34;4962157;28;20030;-78
2020/12/18 01:21:32;;;;;;;6.30;3.40;;;;;;;3.00;94.13;98048.06;4958465;28;20030;-77
2020/12/18 01:23:58;;;;;;;5.32;3.35;;;;;;;2.96;94.14;98047.56;4969795;28;20038;-77
2020/12/18 01:26:24;;;;;;;6.88;4.07;;;;;;;3.04;94.22;98059.59;4968593;28;20101;-77
2020/12/18 01:28:50;;;;;;;6.22;3.55;;;;;;;3.03;94.56;98052.84;4953072;28;20031;-77
2020/12/18 01:31:16;;;;;;;6.13;3.65;;;;;;;3.04;94.62;98062.16;4968574;28;20039;-77
2020/12/18 01:33:42;;;;;;;8.15;3.80;;;;;;;2.99;94.83;98061.88;4968400;28;20042;-77
2020/12/18 01:36:08;;;;;;;10.50;4.75;;;;;;;2.98;95.28;98061.09;4966206;28;20057;-77
2020/12/18 01:38:34;;;;;;;8.10;4.18;;;;;;;2.97;95.22;98059.47;4964943;28;20034;-77
2020/12/18 01:40:59;;;;;;;6.15;3.55;;;;;;;3.09;94.39;98066.78;4969847;28;20031;-77
2020/12/18 01:43:25;;;;;;;7.38;4.03;;;;;;;3.04;94.07;98063.94;4968187;28;20105;-77
2020/12/18 01:45:50;;;;;;;8.18;4.10;;;;;;;3.04;94.87;98053.66;4964076;28;20034;-77
2020/12/18 01:48:16;;;;;;;6.45;3.97;;;;;;;3.08;94.25;98057.47;4958224;28;20057;-77
2020/12/18 01:50:41;;;;;;;7.10;3.78;;;;;;;3.07;94.74;98066.16;4954179;28;20128;-77
2020/12/18 01:53:08;;;;;;;8.20;4.47;;;;;;;3.04;94.79;98066.53;4971606;28;20367;-77
2020/12/18 01:55:34;;;;;;;6.80;3.55;;;;;;;3.04;94.75;98071.66;4938422;28;20042;-77
2020/12/18 01:58:01;;;;;;;6.35;3.40;;;;;;;2.99;94.47;98060.09;4951068;28;20042;-77
2020/12/18 02:00:27;;;;;;;8.27;3.10;;;;;;;2.95;94.34;98055.50;4951964;28;20066;-77
2020/12/18 02:02:54;;;;;;;6.50;3.75;;;;;;;2.92;93.84;98066.13;4949257;28;20042;-77
2020/12/18 02:05:21;;;;;;;6.43;3.60;;;;;;;2.92;93.83;98066.13;4959728;28;20060;-77
2020/12/18 02:08:00;;;;;;;5.82;3.50;;;;;;;2.89;93.76;98069.84;4972263;28;20094;-77
2020/12/18 02:10:26;;;;;;;6.70;3.80;;;;;;;2.84;93.86;98063.63;4954320;28;20101;-77
2020/12/18 02:12:53;;;;;;;5.00;2.92;;;;;;;2.93;93.72;98071.09;4953657;28;20488;-77
2020/12/18 02:15:20;;;;;;;8.43;3.28;;;;;;;2.86;93.48;98053.94;4954283;28;20034;-78
2020/12/18 02:17:48;;;;;;;4.57;2.80;;;;;;;2.84;93.14;98050.75;4959899;28;20036;-77
2020/12/18 02:20:15;;;;;;;5.90;2.90;;;;;;;2.77;93.49;98048.06;4973748;28;20077;-77
2020/12/18 02:22:41;;;;;;;3.60;2.45;;;;;;;2.75;93.20;98053.38;4972506;28;20555;-77
2020/12/18 02:25:09;;;;;;;6.20;2.70;;;;;;;2.63;93.70;98047.03;4973148;28;20037;-77
2020/12/18 02:27:39;;;;;;;3.80;2.53;;;;;;;2.63;93.29;98052.19;4973710;28;20504;-77
2020/12/18 02:30:06;;;;;;;3.35;2.28;;;;;;;2.59;93.55;98051.75;4973603;28;20429;-77
2020/12/18 02:32:32;;;;;;;5.05;2.47;;;;;;;2.55;93.27;98060.78;4973181;28;20557;-77
2020/12/18 02:34:58;;;;;;;3.65;2.20;;;;;;;2.44;94.17;98048.31;4972790;28;20375;-77
2020/12/18 02:37:24;;;;;;;5.10;2.90;;;;;;;2.44;94.34;98051.66;4973269;28;20061;-77
2020/12/18 02:39:56;;;;;;;5.78;3.03;;;;;;;2.52;94.91;98052.56;4956675;28;20489;-77
2020/12/18 02:42:22;;;;;;;4.35;2.08;;;;;;;2.53;94.89;98057.53;4989991;28;20062;-77
2020/12/18 02:44:48;;;;;;;5.10;2.55;;;;;;;2.50;94.78;98051.94;4973143;28;20089;-77
2020/12/18 02:47:13;;;;;;;4.13;2.70;;;;;;;2.54;94.97;98060.94;4990580;28;20049;-77
2020/12/18 02:49:39;;;;;;;5.07;2.70;;;;;;;2.54;94.69;98051.44;4973178;28;20360;-77
2020/12/18 02:52:05;;;;;;;5.05;2.60;;;;;;;2.58;94.80;98055.25;4972729;28;20065;-77
2020/12/18 02:54:31;;;;;;;3.45;2.30;;;;;;;2.57;94.64;98052.84;4956665;28;20037;-77
2020/12/18 02:56:56;;;;;;;3.58;2.05;;;;;;;2.55;94.39;98050.50;4972628;28;20046;-77
2020/12/18 02:59:22;;;;;;;4.60;2.53;;;;;;;2.54;94.10;98048.88;4990539;28;20108;-77
2020/12/18 03:01:48;;;;;;;3.47;2.70;;;;;;;2.57;93.84;98048.53;4972068;28;20473;-77
2020/12/18 03:04:14;;;;;;;4.40;2.40;;;;;;;2.54;94.04;98041.16;4990286;28;20108;-77
2020/12/18 03:06:39;;;;;;;4.55;2.45;;;;;;;2.48;93.82;98044.41;4972900;28;20038;-77
2020/12/18 03:09:05;;;;;;;5.20;2.47;;;;;;;2.44;93.75;98033.66;4957199;28;20038;-77
2020/12/18 03:11:31;;;;;;;5.13;2.65;;;;;;;2.43;94.09;98046.69;4972376;28;20102;-77
2020/12/18 03:13:57;;;;;;;3.33;1.83;;;;;;;2.41;94.45;98051.19;4990056;28;20696;-77
2020/12/18 03:16:23;;;;;;;3.95;2.50;;;;;;;2.43;94.52;98055.22;4956621;28;20062;-77
2020/12/18 03:18:48;;;;;;;2.70;1.77;;;;;;;2.43;94.30;98044.94;4973259;28;20029;-77
2020/12/18 03:21:14;;;;;;;4.40;2.33;;;;;;;2.49;94.58;98052.94;4989751;28;20508;-77
2020/12/18 03:23:40;;;;;;;5.68;2.30;;;;;;;2.56;95.57;98046.13;4956492;28;20046;-77
2020/12/18 03:26:06;;;;;;;6.50;2.60;;;;;;;2.62;95.11;98048.81;4972873;28;20058;-77
2020/12/18 03:28:32;;;;;;;4.28;1.95;;;;;;;2.54;94.72;98048.09;4972853;28;20132;-77
2020/12/18 03:30:57;;;;;;;3.53;2.30;;;;;;;2.54;94.73;98053.22;4982519;28;20034;-77
2020/12/18 03:33:24;;;;;;;2.92;2.20;;;;;;;2.57;94.68;98045.97;4988639;28;20077;-77
2020/12/18 03:35:50;;;;;;;4.13;2.15;;;;;;;2.59;95.29;98040.66;4982566;28;20034;-77
2020/12/18 03:38:15;;;;;;;5.78;2.58;;;;;;;2.62;95.47;98037.72;4975145;28;20032;-77
2020/12/18 03:40:42;;;;;;;4.88;2.80;;;;;;;2.70;95.47;98037.66;4976698;28;20539;-77
2020/12/18 03:43:07;;;;;;;3.83;2.22;;;;;;;2.76;94.94;98041.31;4944281;28;20117;-77
2020/12/18 03:45:33;;;;;;;2.83;1.88;;;;;;;2.47;93.67;98034.28;4993778;28;20039;-77
2020/12/18 03:47:59;;;;;;;4.45;1.98;;;;;;;2.18;92.70;98034.00;4993667;28;20462;-77
2020/12/18 03:50:25;;;;;;;3.58;1.80;;;;;;;1.92;92.40;98033.47;4975458;28;20125;-77
2020/12/18 03:52:51;;;;;;;3.28;1.52;;;;;;;1.80;92.70;98031.28;4959656;28;20030;-77
2020/12/18 03:55:17;;;;;;;1.95;1.17;;;;;;;1.75;93.23;98037.88;4993315;28;20065;-77
2020/12/18 03:57:43;;;;;;;2.22;1.50;;;;;;;1.69;93.36;98040.13;4992862;28;20034;-77
2020/12/18 04:00:09;;;;;;;3.42;1.65;;;;;;;1.68;93.69;98037.75;4992798;28;20053;-77
2020/12/18 04:02:36;;;;;;;4.35;1.60;;;;;;;1.64;93.69;98037.25;4975155;28;20050;-76
2020/12/18 04:05:02;;;;;;;3.25;1.80;;;;;;;1.67;94.71;98031.00;4975079;28;20433;-77
2020/12/18 04:07:28;;;;;;;4.35;1.98;;;;;;;1.77;95.01;98026.47;4975682;28;20061;-77
2020/12/18 04:09:54;;;;;;;3.17;1.70;;;;;;;1.83;95.24;98030.16;4975558;28;20121;-77
2020/12/18 04:12:20;;;;;;;2.35;1.40;;;;;;;1.80;94.61;98020.19;4975313;28;20065;-77
2020/12/18 04:14:46;;;;;;;1.80;0.98;;;;;;;1.85;94.76;98033.34;4993779;28;20370;-77
2020/12/18 04:17:12;;;;;;;2.08;1.27;;;;;;;1.74;94.06;98028.59;4975309;28;20051;-77
2020/12/18 04:19:38;;;;;;;2.08;1.33;;;;;;;1.58;93.15;98026.88;4975503;28;20037;-77
2020/12/18 04:22:05;;;;;;;1.70;1.20;;;;;;;1.41;92.39;98024.34;4974505;28;20389;-77
2020/12/18 04:24:30;;;;;;;2.55;1.70;;;;;;;1.18;91.93;98018.31;4974989;28;20041;-77
2020/12/18 04:26:57;;;;;;;2.70;1.52;;;;;;;1.19;92.44;98022.47;4974855;28;20041;-77
2020/12/18 04:29:22;;;;;;;2.40;1.40;;;;;;;1.12;92.15;98024.91;4992597;28;20039;-77
2020/12/18 04:31:48;;;;;;;2.17;1.55;;;;;;;1.04;92.32;98014.66;4991833;28;20049;-77
2020/12/18 04:34:14;;;;;;;2.35;1.27;;;;;;;0.95;91.82;98020.75;4974934;28;20501;-77
2020/12/18 04:36:42;;;;;;;2.25;1.13;;;;;;;0.90;92.72;98024.59;4987430;28;20193;-77
2020/12/18 04:39:07;;;;;;;3.03;1.50;;;;;;;0.88;92.96;98020.59;4992626;28;20039;-77
2020/12/18 04:41:34;;;;;;;5.03;1.80;;;;;;;0.86;92.94;98012.28;4991840;28;20049;-77
2020/12/18 04:44:00;;;;;;;3.30;1.20;;;;;;;1.01;92.45;98014.97;4991318;28;20539;-77
2020/12/18 04:46:28;;;;;;;2.53;1.50;;;;;;;0.98;92.58;98025.53;4990665;28;20019;-76
2020/12/18 04:48:54;;;;;;;2.45;1.15;;;;;;;0.94;92.69;98014.81;4991629;28;20026;-77
2020/12/18 04:51:23;;;;;;;4.07;1.40;;;;;;;0.94;92.79;98017.38;4990416;28;20096;-77
2020/12/18 04:53:51;;;;;;;2.58;1.50;;;;;;;0.93;92.64;98011.44;4967455;28;20026;-77
2020/12/18 04:56:21;;;;;;;4.53;1.85;;;;;;;1.00;93.99;98018.50;4974674;28;20030;-77
2020/12/18 04:58:52;;;;;;;2.83;1.70;;;;;;;1.02;93.98;98012.25;4974474;28;20034;-77
2020/12/18 05:01:24;;;;;;;5.13;2.10;;;;;;;1.18;93.78;98020.88;4991151;28;20034;-77
2020/12/18 05:03:51;;;;;;;2.53;1.67;;;;;;;1.16;94.08;98023.59;4962397;28;20080;-77
2020/12/18 05:06:18;;;;;;;2.83;1.38;;;;;;;1.14;92.89;98022.97;5010798;28;20190;-77
2020/12/18 05:08:45;;;;;;;2.10;1.70;;;;;;;1.03;92.31;98020.72;4993672;28;20038;-77
2020/12/18 05:11:28;;;;;;;1.88;1.08;;;;;;;0.95;92.33;98020.75;4993612;28;20036;-76
2020/12/18 05:13:57;;;;;;;2.38;1.55;;;;;;;0.92;92.96;98021.88;4993906;28;20030;-76
2020/12/18 05:16:24;;;;;;;2.78;1.73;;;;;;;1.00;93.74;98018.50;4994007;28;20044;-77
2020/12/18 05:18:55;;;;;;;1.83;1.30;;;;;;;1.07;94.01;98019.47;4993766;28;20058;-76
2020/12/18 05:21:21;;;;;;;3.72;1.63;;;;;;;1.14;93.93;98028.09;4972339;28;20444;-77
2020/12/18 05:23:47;;;;;;;2.47;1.35;;;;;;;1.12;93.64;98032.59;4991424;28;20030;-76
2020/12/18 05:26:14;;;;;;;2.58;1.77;;;;;;;1.06;93.59;98028.09;4973832;28;20046;-77
2020/12/18 05:28:49;;;;;;;3.67;1.42;;;;;;;1.04;93.77;98030.81;4973476;28;20026;-77
2020/12/18 05:31:16;;;;;;;;;;;;;;;1.02;94.13;98030.19;4974109;28;20397;-77
2020/12/18 05:33:43;;;;;;;3.80;1.98;;;;;;;1.03;93.98;98029.25;4957681;28;19916;-77
2020/12/18 05:36:09;;;;;;;2.35;1.63;;;;;;;1.02;94.58;98026.84;4974256;28;20436;-77
2020/12/18 05:38:39;;;;;;;2.75;1.70;;;;;;;1.05;94.54;98032.44;4974153;28;20038;-76
2020/12/18 05:41:06;;;;;;;4.72;2.30;;;;;;;1.02;94.52;98034.53;4973993;28;20046;-77
2020/12/18 05:43:38;;;;;;;5.32;3.50;;;;;;;0.96;94.30;98035.16;4991613;28;20026;-77
2020/12/18 05:46:28;;;;;;;7.95;3.72;;;;;;;0.84;94.06;98027.00;4976625;28;20683;-77
2020/12/18 05:48:59;;;;;;;4.93;2.60;;;;;;;0.79;94.20;98032.63;4974346;28;20088;-77
2020/12/18 05:51:33;;;;;;;4.15;2.30;;;;;;;0.66;93.78;98027.16;4973829;28;20257;-76
2020/12/18 05:54:18;;;;;;;5.80;2.80;;;;;;;0.56;92.90;98033.22;4974107;28;20088;-77
2020/12/18 05:56:46;;;;;;;4.65;3.03;;;;;;;0.45;93.23;98033.56;4973764;28;20106;-77
2020/12/18 05:59:14;;;;;;;17.67;7.38;;;;;;;0.44;92.93;98044.75;4972959;28;20440;-77
2020/12/18 06:01:51;;;;;;;21.42;10.27;;;;;;;0.28;93.16;98027.59;4989066;28;20398;-77
2020/12/18 06:04:18;;;;;;;12.77;7.03;;;;;;;0.35;93.34;98045.69;4971897;28;20058;-77
2020/12/18 06:06:54;;;;;;;11.10;5.55;;;;;;;0.35;93.87;98038.00;4972499;28;20049;-77
2020/12/18 06:09:22;;;;;;;9.95;4.50;;;;;;;0.34;93.98;98038.97;4971647;28;20133;-77
2020/12/18 06:11:48;;;;;;;11.65;4.45;;;;;;;0.27;93.52;98033.66;4971973;28;20034;-77
2020/12/18 06:14:16;;;;;;;7.00;4.30;;;;;;;0.28;93.89;98037.84;4966153;28;20536;-76
2020/12/18 06:16:46;;;;;;;20.75;11.77;;;;;;;0.28;94.17;98031.94;4952983;28;20027;-77
2020/12/18 06:19:15;;;;;;;8.20;6.38;;;;;;;0.24;94.20;98023.75;4970662;28;20038;-77
2020/12/18 06:21:51;;;;;;;6.65;5.43;;;;;;;0.31;93.35;98039.28;4977089;28;20110;-77
2020/12/18 06:24:17;;;;;;;4.82;3.85;;;;;;;0.30;93.12;98024.88;4972474;28;20038;-76
2020/12/18 06:26:52;;;;;;;3.40;2.50;;;;;;;0.36;93.04;98030.19;4972928;28;20034;-77
2020/12/18 06:29:21;;;;;;;3.30;2.60;;;;;;;0.37;92.66;98028.41;4973030;28;20034;-77
2020/12/18 06:31:47;;;;;;;5.72;3.40;;;;;;;0.11;92.09;98008.03;4972080;28;20069;-77
2020/12/18 06:34:27;;;;;;;3.10;2.20;;;;;;;0.02;91.78;98009.78;4992729;28;20057;-77
2020/12/18 06:36:57;;;;;;;3.70;1.63;;;;;;;-0.10;91.46;98024.63;4989427;28;20038;-77
2020/12/18 06:39:25;;;;;;;3.80;1.85;;;;;;;-0.26;91.95;98022.00;4972766;28;20121;-77
2020/12/18 06:42:13;;;;;;;4.18;1.77;;;;;;;-0.35;92.44;98023.72;4989392;28;20513;-77
2020/12/18 06:44:43;;;;;;;2.58;1.63;;;;;;;-0.30;92.75;98020.72;4988291;28;20065;-77
2020/12/18 06:47:14;;;;;;;4.45;1.75;;;;;;;-0.31;93.07;98029.31;4988568;28;20026;-77
2020/12/18 06:49:58;;;;;;;3.30;1.45;;;;;;;-0.28;92.70;98023.91;4989778;28;20034;-77
2020/12/18 06:52:49;;;;;;;2.40;1.17;;;;;;;-0.27;92.49;98030.66;4989310;28;20547;-77
2020/12/18 06:55:24;;;;;;;2.17;1.20;;;;;;;-0.24;92.95;98031.13;4994094;28;20051;-77
2020/12/18 06:58:05;;;;;;;;;;;;;;;-0.20;93.43;98029.06;4970646;28;20034;-77
2020/12/18 07:00:32;;;;;;;1.75;1.35;;;;;;;-0.23;93.53;98037.03;4940602;28;19917;-76
2020/12/18 07:03:01;;;;;;;1.42;0.70;;;;;;;-0.28;93.31;98027.25;4971344;28;20034;-76
2020/12/18 07:05:39;;;;;;;1.55;0.85;;;;;;;-0.23;93.40;98035.28;4984438;28;20038;-77
2020/12/18 07:08:09;;;;;;;1.83;1.10;;;;;;;-0.21;93.88;98028.28;4986696;28;20404;-77
2020/12/18 07:10:36;;;;;;;4.03;1.15;;;;;;;-0.23;93.68;98024.25;4953281;28;20046;-77
2020/12/18 07:13:03;;;;;;;1.80;1.20;;;;;;;-0.25;93.34;98026.97;4962424;28;20211;-77
2020/12/18 07:15:48;;;;;;;1.70;0.88;;;;;;;-0.21;93.53;98035.94;4964417;28;20038;-76
2020/12/18 07:18:27;;;;;;;1.92;0.90;;;;;;;-0.21;93.13;98030.00;4990719;28;20046;-77
2020/12/18 07:20:56;;;;;;;2.15;1.30;;;;;;;-0.27;92.69;98034.00;4968439;28;20065;-77
2020/12/18 07:23:23;;;;;;;2.15;1.10;;;;;;;-0.35;92.69;98028.03;4957598;28;20077;-76
2020/12/18 07:25:49;;;;;;;2.38;1.52;;;;;;;-0.43;93.09;98033.91;4991311;28;20321;-77
2020/12/18 07:28:16;;;;;;;3.30;1.00;;;;;;;-0.45;93.16;98028.94;4975867;28;20274;-77
2020/12/18 07:30:46;;;;;;;2.47;1.38;;;;;;;-0.45;93.73;98033.28;4968176;28;20627;-76
2020/12/18 07:33:14;;;;;;;3.13;1.60;;;;;;;-0.47;94.15;98030.84;4973946;28;20022;-77
2020/12/18 07:35:44;;;;;;;1.85;1.30;;;;;;;-0.49;94.02;98026.88;4981411;28;20393;-76
2020/12/18 07:38:22;;;;;;;3.20;1.70;;;;;;;-0.41;94.15;98037.13;4960967;28;20034;-77
2020/12/18 07:40:51;;;;;;;2.55;1.52;;;;;;;-0.39;94.11;98035.22;4998705;28;20077;-76
2020/12/18 07:43:20;;;;;;;2.40;1.73;;;;;;;-0.39;93.95;98036.03;4958002;28;20027;-77
2020/12/18 07:45:51;;;;;;;4.50;3.05;;;;;;;-0.40;93.84;98031.84;4992408;28;20030;-76
2020/12/18 07:48:43;;;;;;;4.22;2.30;;;;;;;-0.36;94.25;98031.53;4983185;28;20513;-77
2020/12/18 07:51:19;;;;;;;1.75;1.30;;;;;;;-0.42;93.67;98028.66;4976866;28;20034;-77
2020/12/18 07:53:56;;;;;;;1.60;1.00;;;;;;;-0.38;93.16;98035.06;4946494;28;20084;-76
2020/12/18 07:56:22;;;;;;;3.40;1.20;;;;;;;-0.29;92.35;98038.47;4992430;28;20057;-76
2020/12/18 07:58:53;;;;;;;2.22;1.10;;;;;;;-0.28;92.18;98029.81;4980198;28;20049;-76
2020/12/18 08:01:21;;;;;;;4.00;0.90;;;;;;;-0.21;92.13;98030.84;4949165;28;20065;-76
2020/12/18 08:03:49;;;;;;;1.92;1.05;;;;;;;-0.23;91.75;98029.38;4972799;28;20046;-77
2020/12/18 08:06:17;;;;;;;0.90;0.70;;;;;;;-0.25;92.12;98029.53;4980133;28;20271;-76
2020/12/18 08:08:54;;;;;;;1.70;1.45;;;;;;;-0.28;92.49;98029.81;4969518;28;20176;-77
2020/12/18 08:11:24;;;;;;;1.30;1.10;;;;;;;-0.29;92.29;98028.22;4969127;28;20026;-76
2020/12/18 08:13:51;;;;;;;1.88;1.10;;;;;;;-0.26;92.04;98038.16;4969749;28;20038;-76
2020/12/18 08:16:20;;;;;;;1.73;0.90;;;;;;;-0.23;92.30;98032.72;4970116;28;20493;-77
2020/12/18 08:18:52;;;;;;;4.32;1.20;;;;;;;-0.18;91.97;98034.03;4960425;28;20033;-76
2020/12/18 08:21:23;;;;;;;1.92;1.10;;;;;;;-0.17;92.78;98035.63;4935829;28;20460;-76
2020/12/18 08:23:54;;;;;;;1.27;0.90;;;;;;;-0.10;93.06;98031.50;4968074;28;20022;-76
2020/12/18 08:26:23;;;;;;;1.30;0.75;;;;;;;-0.13;92.90;98031.81;4968734;28;20086;-77
2020/12/18 08:28:49;;;;;;;1.67;0.90;;;;;;;-0.08;93.12;98024.47;4962226;28;20281;-76
2020/12/18 08:31:18;;;;;;;1.60;0.65;;;;;;;-0.07;92.95;98026.88;4965965;28;20545;-76
2020/12/18 08:33:53;;;;;;;1.83;0.90;;;;;;;-0.01;92.83;98017.78;4952376;28;20052;-77
2020/12/18 08:36:19;;;;;;;1.35;0.98;;;;;;;0.00;92.79;98021.94;4957950;28;20054;-77
2020/12/18 08:39:06;;;;;;;2.45;0.82;;;;;;;0.07;93.13;98027.22;4955856;28;20604;-77
2020/12/18 08:42:01;;;;;;;0.90;0.70;;;;;;;0.13;92.87;98027.41;4951903;28;20031;-76
2020/12/18 08:44:38;;;;;;;1.42;0.75;;;;;;;0.20;92.87;98019.88;4918571;28;20537;-76
2020/12/18 08:47:20;;;;;;;1.50;1.00;;;;;;;0.34;93.09;98026.16;4960561;28;20039;-77
2020/12/18 08:49:46;;;;;;;1.58;1.10;;;;;;;0.46;92.95;98019.75;4963351;28;20072;-76
2020/12/18 08:52:20;;;;;;;2.00;0.80;;;;;;;0.56;93.09;98022.97;4968286;28;20042;-76
2020/12/18 08:54:46;;;;;;;2.22;0.63;;;;;;;0.69;93.35;98017.38;4957490;28;20429;-77
2020/12/18 08:57:13;;;;;;;2.15;1.10;;;;;;;0.84;93.79;98019.28;4964618;28;20035;-76
2020/12/18 08:59:40;;;;;;;1.58;1.05;;;;;;;1.00;93.50;98024.44;4968438;28;20105;-76
2020/12/18 09:02:15;;;;;;;2.38;1.25;;;;;;;1.24;94.74;98031.28;4954274;28;20344;-77
2020/12/18 09:04:41;;;;;;;;;;;;;;;1.33;94.67;98029.50;4943988;28;20063;-76
2020/12/18 09:07:06;;;;;;;2.70;1.10;;;;;;;1.29;93.92;98021.34;4972275;28;19921;-76
2020/12/18 09:09:32;;;;;;;1.85;1.08;;;;;;;1.35;92.45;98026.78;4971488;28;20058;-76
2020/12/18 09:12:18;;;;;;;1.33;0.98;;;;;;;1.36;91.74;98030.94;4971041;28;20485;-76
2020/12/18 09:14:44;;;;;;;2.45;0.90;;;;;;;1.31;92.26;98027.09;4971442;28;20042;-76
2020/12/18 09:17:10;;;;;;;2.08;1.15;;;;;;;1.35;92.00;98026.78;4972596;28;20442;-76
2020/12/18 09:19:44;;;;;;;2.13;1.67;;;;;;;1.37;92.35;98025.66;4971647;28;20046;-77
2020/12/18 09:22:09;;;;;;;1.95;1.35;;;;;;;1.48;92.35;98019.38;4968581;28;20041;-76
2020/12/18 09:24:35;;;;;;;2.25;1.17;;;;;;;1.47;91.89;98023.72;4972465;28;20101;-77
2020/12/18 09:27:11;;;;;;;4.78;1.30;;;;;;;1.50;92.54;98022.56;4988252;28;20030;-76
2020/12/18 09:29:38;;;;;;;1.90;1.40;;;;;;;1.63;92.28;98032.31;4962125;28;20084;-76
2020/12/18 09:32:04;;;;;;;1.23;0.80;;;;;;;1.65;92.26;98020.13;4946989;28;20066;-76
2020/12/18 09:34:31;;;;;;;2.25;0.95;;;;;;;1.67;92.74;98016.41;4970145;28;20030;-77
2020/12/18 09:37:09;;;;;;;1.92;1.02;;;;;;;1.85;93.93;98017.94;4948960;28;20153;-76
2020/12/18 09:39:35;;;;;;;3.22;1.63;;;;;;;2.30;95.40;98021.56;4943891;28;20022;-76
2020/12/18 09:42:02;;;;;;;2.50;1.70;;;;;;;2.88;96.22;98019.38;4987501;28;20061;-77
2020/12/18 09:44:27;;;;;;;2.85;1.65;;;;;;;3.30;97.03;98017.22;4961768;28;20065;-77
2020/12/18 09:46:53;;;;;;;4.10;1.73;;;;;;;3.62;96.98;98010.91;4970315;28;20403;-77
2020/12/18 09:49:20;;;;;;;3.38;1.95;;;;;;;3.84;96.98;98013.53;4987818;28;20065;-77
2020/12/18 09:51:46;;;;;;;3.33;2.10;;;;;;;3.96;97.20;98006.97;4987508;28;20026;-77
2020/12/18 09:54:12;;;;;;;3.92;2.55;;;;;;;3.97;97.17;98018.06;4970340;28;20461;-77
2020/12/18 09:56:38;;;;;;;7.13;2.20;;;;;;;3.96;96.97;98021.59;4987824;28;20038;-77
2020/12/18 09:59:04;;;;;;;3.38;2.10;;;;;;;4.10;96.53;98011.28;4953587;28;20113;-77
2020/12/18 10:01:30;;;;;;;4.63;2.45;;;;;;;4.34;97.06;98011.94;4959250;28;20034;-77
2020/12/18 10:03:56;;;;;;;4.45;1.85;;;;;;;4.55;96.63;98010.34;4969982;28;20046;-77
2020/12/18 10:06:25;;;;;;;3.97;2.33;;;;;;;4.73;96.41;97996.97;4970629;28;20031;-77
2020/12/18 10:08:52;;;;;;;4.78;1.98;;;;;;;4.97;96.15;98003.50;4968620;28;20034;-77
2020/12/18 10:11:17;;;;;;;4.57;1.90;;;;;;;4.99;95.78;97997.19;4982692;28;20031;-77
2020/12/18 10:13:44;;;;;;;4.68;2.10;;;;;;;5.02;95.94;97989.09;4987111;28;20030;-77
2020/12/18 10:16:10;;;;;;;3.38;2.13;;;;;;;5.20;95.41;97993.75;4969878;28;20034;-77
2020/12/18 10:18:35;;;;;;;4.30;1.85;;;;;;;5.23;95.85;97983.06;4951195;28;20030;-77
2020/12/18 10:21:03;;;;;;;3.17;1.85;;;;;;;5.34;95.38;97986.09;4966057;28;20399;-77
2020/12/18 10:23:29;;;;;;;4.65;2.53;;;;;;;5.47;94.90;97982.78;4970470;28;20114;-77
2020/12/18 10:25:56;;;;;;;5.00;1.63;;;;;;;5.48;94.39;97974.03;4968714;28;20524;-76
2020/12/18 10:28:24;;;;;;;4.90;2.10;;;;;;;5.58;93.73;97974.50;4986983;28;20023;-76
2020/12/18 10:30:51;;;;;;;2.83;1.98;;;;;;;5.69;93.66;97971.38;4975095;28;20058;-77
2020/12/18 10:33:17;;;;;;;3.53;1.95;;;;;;;5.80;93.63;97972.59;4968704;28;20508;-77
2020/12/18 10:35:43;;;;;;;2.42;1.55;;;;;;;5.84;93.66;97967.84;4987246;28;20290;-77
2020/12/18 10:38:11;;;;;;;4.40;1.92;;;;;;;5.94;92.74;97957.91;4969915;28;20485;-77
2020/12/18 10:40:37;;;;;;;3.42;1.95;;;;;;;5.99;92.80;97953.00;4968841;28;20385;-77
2020/12/18 10:43:03;;;;;;;3.10;2.05;;;;;;;5.89;92.55;97945.56;4986322;28;20038;-77
2020/12/18 10:45:29;;;;;;;2.80;1.90;;;;;;;5.97;92.77;97947.22;4952829;28;20042;-76
2020/12/18 10:47:55;;;;;;;3.40;1.52;;;;;;;6.05;92.58;97954.00;4983712;28;20374;-77
2020/12/18 10:50:21;;;;;;;4.55;2.60;;;;;;;6.04;92.55;97953.19;4968651;28;20103;-76
2020/12/18 10:52:47;;;;;;;6.13;2.08;;;;;;;6.08;92.89;97943.25;4963036;28;20285;-77
2020/12/18 10:55:13;;;;;;;3.10;2.08;;;;;;;6.13;91.36;97951.22;4986900;28;20053;-77
2020/12/18 10:57:42;;;;;;;3.05;1.98;;;;;;;6.22;90.84;97944.91;4987304;28;20033;-77
2020/12/18 11:00:07;;;;;;;3.97;1.90;;;;;;;6.26;90.22;97940.13;4951747;28;20034;-77
2020/12/18 11:02:35;;;;;;;2.60;2.00;;;;;;;6.29;91.17;97940.53;4962920;28;20042;-77
2020/12/18 11:05:01;;;;;;;4.70;2.13;;;;;;;6.34;90.00;97939.91;4984480;28;20055;-77
2020/12/18 11:07:33;;;;;;;5.45;2.88;;;;;;;6.38;91.33;97939.31;4970060;28;20082;-77
2020/12/18 11:09:59;;;;;;;4.70;2.25;;;;;;;6.51;89.13;97933.38;4962640;28;20169;-77
2020/12/18 11:12:25;;;;;;;5.15;2.60;;;;;;;6.63;89.21;97925.81;4985909;28;20104;-77
2020/12/18 11:14:51;;;;;;;2.95;2.45;;;;;;;6.73;88.93;97923.63;4968165;28;20030;-77
2020/12/18 11:17:16;;;;;;;3.80;2.80;;;;;;;6.86;87.67;97925.38;4968504;28;20470;-77
2020/12/18 11:19:42;;;;;;;4.93;2.47;;;;;;;6.89;88.43;97924.97;4985366;28;20034;-77
2020/12/18 11:22:08;;;;;;;4.40;3.25;;;;;;;6.99;86.88;97921.16;4960321;28;20069;-77
2020/12/18 11:24:35;;;;;;;3.65;2.20;;;;;;;7.03;87.26;97924.97;4986203;28;20042;-77
2020/12/18 11:27:00;;;;;;;5.22;2.67;;;;;;;7.05;88.06;97925.56;4968885;28;20030;-77
2020/12/18 11:29:26;;;;;;;4.78;2.30;;;;;;;7.05;87.01;97917.78;4973230;28;20031;-77
2020/12/18 11:31:52;;;;;;;4.00;2.33;;;;;;;7.02;88.31;97934.50;4969443;28;20030;-77
2020/12/18 11:34:19;;;;;;;3.28;2.30;;;;;;;7.08;87.07;97923.34;4971522;28;20034;-77
2020/12/18 11:36:45;;;;;;;4.68;2.33;;;;;;;7.04;87.08;97927.34;4964949;28;20054;-77
2020/12/18 11:39:11;;;;;;;4.80;2.40;;;;;;;7.10;88.70;97928.31;4971372;28;20042;-77
2020/12/18 11:41:37;;;;;;;4.75;2.50;;;;;;;7.14;88.57;97924.31;4970753;28;20045;-77
2020/12/18 11:44:03;;;;;;;3.78;2.47;;;;;;;7.16;87.51;97926.72;4960689;28;20042;-77
2020/12/18 11:46:29;;;;;;;4.20;2.13;;;;;;;7.14;88.22;97919.16;4971210;28;20041;-77